sensor_id;sensor_type;location;lat;lon;timestamp;P1;durP1;ratioP1;P2;durP2;ratioP2
19905;SDS011;10115;50.906;4.438;2023-03-14T00:01:19;5.53;;;5.13;;
19905;SDS011;10115;50.906;4.438;2023-03-14T00:03:45;6.00;;;5.67;;
19905;SDS011;10115;50.906;4.438;2023-03-14T00:06:12;9.23;;;4.57;;
19905;SDS011;10115;50.906;4.438;2023-03-14T00:08:39;4.60;;;4.40;;
19905;SDS011;10115;50.906;4.438;2023-03-14T00:11:09;7.80;;;4.97;;
19905;SDS011;10115;50.906;4.438;2023-03-14T00:13:41;4.90;;;4.53;;
19905;SDS011;10115;50.906;4.438;2023-03-14T00:16:10;5.17;;;4.87;;
19905;SDS011;10115;50.906;4.438;2023-03-14T00:18:37;5.10;;;4.60;;
19905;SDS011;10115;50.906;4.438;2023-03-14T00:21:04;5.07;;;4.73;;
19905;SDS011;10115;50.906;4.438;2023-03-14T00:23:32;5.40;;;4.90;;
19905;SDS011;10115;50.906;4.438;2023-03-14T00:26:04;4.53;;;4.33;;
19905;SDS011;10115;50.906;4.438;2023-03-14T00:28:34;9.13;;;4.73;;
19905;SDS011;10115;50.906;4.438;2023-03-14T00:31:04;10.97;;;6.23;;
19905;SDS011;10115;50.906;4.438;2023-03-14T00:33:31;5.80;;;5.40;;
19905;SDS011;10115;50.906;4.438;2023-03-14T00:35:57;5.90;;;5.23;;
19905;SDS011;10115;50.906;4.438;2023-03-14T00:38:27;4.40;;;4.10;;
19905;SDS011;10115;50.906;4.438;2023-03-14T00:40:54;8.73;;;5.30;;
19905;SDS011;10115;50.906;4.438;2023-03-14T00:43:20;5.07;;;4.77;;
19905;SDS011;10115;50.906;4.438;2023-03-14T00:45:48;6.80;;;4.70;;
19905;SDS011;10115;50.906;4.438;2023-03-14T00:48:17;5.60;;;5.03;;
19905;SDS011;10115;50.906;4.438;2023-03-14T00:50:44;4.90;;;4.70;;
19905;SDS011;10115;50.906;4.438;2023-03-14T00:53:10;11.67;;;4.97;;
19905;SDS011;10115;50.906;4.438;2023-03-14T00:55:38;5.67;;;5.27;;
19905;SDS011;10115;50.906;4.438;2023-03-14T00:58:04;5.10;;;4.47;;
19905;SDS011;10115;50.906;4.438;2023-03-14T01:00:30;7.33;;;5.23;;
19905;SDS011;10115;50.906;4.438;2023-03-14T01:02:56;4.93;;;4.60;;
19905;SDS011;10115;50.906;4.438;2023-03-14T01:05:22;5.73;;;4.97;;
19905;SDS011;10115;50.906;4.438;2023-03-14T01:07:48;10.67;;;5.40;;
19905;SDS011;10115;50.906;4.438;2023-03-14T01:10:14;26.73;;;5.60;;
19905;SDS011;10115;50.906;4.438;2023-03-14T01:12:40;5.63;;;5.23;;
19905;SDS011;10115;50.906;4.438;2023-03-14T01:15:06;5.20;;;4.87;;
19905;SDS011;10115;50.906;4.438;2023-03-14T01:17:32;5.27;;;5.00;;
19905;SDS011;10115;50.906;4.438;2023-03-14T01:19:59;5.23;;;4.93;;
19905;SDS011;10115;50.906;4.438;2023-03-14T01:22:25;4.73;;;4.53;;
19905;SDS011;10115;50.906;4.438;2023-03-14T01:24:51;5.93;;;5.13;;
19905;SDS011;10115;50.906;4.438;2023-03-14T01:27:17;6.43;;;5.80;;
19905;SDS011;10115;50.906;4.438;2023-03-14T01:29:43;5.10;;;4.80;;
19905;SDS011;10115;50.906;4.438;2023-03-14T01:32:08;5.77;;;5.20;;
19905;SDS011;10115;50.906;4.438;2023-03-14T01:34:34;5.33;;;4.90;;
19905;SDS011;10115;50.906;4.438;2023-03-14T01:37:00;5.90;;;5.33;;
19905;SDS011;10115;50.906;4.438;2023-03-14T01:39:26;10.93;;;5.80;;
19905;SDS011;10115;50.906;4.438;2023-03-14T01:41:53;5.63;;;5.13;;
19905;SDS011;10115;50.906;4.438;2023-03-14T01:44:19;8.60;;;6.03;;
19905;SDS011;10115;50.906;4.438;2023-03-14T01:46:45;5.20;;;4.57;;
19905;SDS011;10115;50.906;4.438;2023-03-14T01:49:13;7.93;;;4.80;;
19905;SDS011;10115;50.906;4.438;2023-03-14T01:52:03;6.80;;;5.43;;
19905;SDS011;10115;50.906;4.438;2023-03-14T01:54:39;5.67;;;5.20;;
19905;SDS011;10115;50.906;4.438;2023-03-14T01:57:14;9.97;;;4.93;;
19905;SDS011;10115;50.906;4.438;2023-03-14T01:59:46;5.07;;;4.83;;
19905;SDS011;10115;50.906;4.438;2023-03-14T02:02:21;5.13;;;4.83;;
19905;SDS011;10115;50.906;4.438;2023-03-14T02:04:48;5.43;;;5.10;;
19905;SDS011;10115;50.906;4.438;2023-03-14T02:07:19;5.30;;;4.80;;
19905;SDS011;10115;50.906;4.438;2023-03-14T02:09:50;4.70;;;4.50;;
19905;SDS011;10115;50.906;4.438;2023-03-14T02:12:16;4.40;;;4.30;;
19905;SDS011;10115;50.906;4.438;2023-03-14T02:14:45;4.80;;;4.60;;
19905;SDS011;10115;50.906;4.438;2023-03-14T02:17:13;4.70;;;4.50;;
19905;SDS011;10115;50.906;4.438;2023-03-14T02:22:25;5.07;;;4.77;;
19905;SDS011;10115;50.906;4.438;2023-03-14T02:27:23;4.47;;;4.30;;
19905;SDS011;10115;50.906;4.438;2023-03-14T02:32:27;4.90;;;4.70;;
19905;SDS011;10115;50.906;4.438;2023-03-14T02:35:00;4.43;;;4.30;;
19905;SDS011;10115;50.906;4.438;2023-03-14T02:37:35;4.87;;;4.67;;
19905;SDS011;10115;50.906;4.438;2023-03-14T02:40:06;4.67;;;4.47;;
19905;SDS011;10115;50.906;4.438;2023-03-14T02:42:32;4.60;;;4.40;;
19905;SDS011;10115;50.906;4.438;2023-03-14T02:47:33;4.40;;;4.20;;
19905;SDS011;10115;50.906;4.438;2023-03-14T02:50:01;4.80;;;4.60;;
19905;SDS011;10115;50.906;4.438;2023-03-14T02:52:31;5.00;;;4.70;;
19905;SDS011;10115;50.906;4.438;2023-03-14T02:54:57;6.37;;;4.73;;
19905;SDS011;10115;50.906;4.438;2023-03-14T02:57:22;4.97;;;4.57;;
19905;SDS011;10115;50.906;4.438;2023-03-14T02:59:48;8.60;;;4.83;;
19905;SDS011;10115;50.906;4.438;2023-03-14T03:02:14;4.50;;;4.30;;
19905;SDS011;10115;50.906;4.438;2023-03-14T03:04:39;7.07;;;5.27;;
19905;SDS011;10115;50.906;4.438;2023-03-14T03:07:05;5.83;;;4.83;;
19905;SDS011;10115;50.906;4.438;2023-03-14T03:09:31;6.27;;;5.77;;
19905;SDS011;10115;50.906;4.438;2023-03-14T03:11:57;8.10;;;5.53;;
19905;SDS011;10115;50.906;4.438;2023-03-14T03:14:22;4.53;;;4.30;;
19905;SDS011;10115;50.906;4.438;2023-03-14T03:16:48;7.60;;;5.37;;
19905;SDS011;10115;50.906;4.438;2023-03-14T03:19:14;6.27;;;5.47;;
19905;SDS011;10115;50.906;4.438;2023-03-14T03:21:40;5.67;;;5.27;;
19905;SDS011;10115;50.906;4.438;2023-03-14T03:24:06;4.87;;;4.63;;
19905;SDS011;10115;50.906;4.438;2023-03-14T03:26:33;6.87;;;5.30;;
19905;SDS011;10115;50.906;4.438;2023-03-14T03:28:59;9.50;;;5.70;;
19905;SDS011;10115;50.906;4.438;2023-03-14T03:31:25;5.93;;;5.53;;
19905;SDS011;10115;50.906;4.438;2023-03-14T03:33:51;10.27;;;6.07;;
19905;SDS011;10115;50.906;4.438;2023-03-14T03:36:20;4.70;;;4.50;;
19905;SDS011;10115;50.906;4.438;2023-03-14T03:38:47;6.53;;;5.63;;
19905;SDS011;10115;50.906;4.438;2023-03-14T03:41:13;6.70;;;5.13;;
19905;SDS011;10115;50.906;4.438;2023-03-14T03:43:39;6.03;;;5.60;;
19905;SDS011;10115;50.906;4.438;2023-03-14T03:46:05;10.67;;;6.47;;
19905;SDS011;10115;50.906;4.438;2023-03-14T03:48:32;5.43;;;5.13;;
19905;SDS011;10115;50.906;4.438;2023-03-14T03:50:57;6.20;;;5.70;;
19905;SDS011;10115;50.906;4.438;2023-03-14T03:53:24;7.77;;;6.13;;
19905;SDS011;10115;50.906;4.438;2023-03-14T03:55:49;9.77;;;9.27;;
19905;SDS011;10115;50.906;4.438;2023-03-14T03:58:15;7.37;;;6.33;;
19905;SDS011;10115;50.906;4.438;2023-03-14T04:00:41;7.60;;;6.97;;
19905;SDS011;10115;50.906;4.438;2023-03-14T04:03:06;5.90;;;5.40;;
19905;SDS011;10115;50.906;4.438;2023-03-14T04:05:32;9.20;;;5.83;;
19905;SDS011;10115;50.906;4.438;2023-03-14T04:07:59;12.63;;;6.30;;
19905;SDS011;10115;50.906;4.438;2023-03-14T04:10:26;9.13;;;8.27;;
19905;SDS011;10115;50.906;4.438;2023-03-14T04:12:51;11.40;;;10.47;;
19905;SDS011;10115;50.906;4.438;2023-03-14T04:15:17;10.13;;;9.40;;
19905;SDS011;10115;50.906;4.438;2023-03-14T04:17:43;9.00;;;8.20;;
19905;SDS011;10115;50.906;4.438;2023-03-14T04:20:09;9.40;;;8.80;;
19905;SDS011;10115;50.906;4.438;2023-03-14T04:22:38;8.40;;;7.70;;
19905;SDS011;10115;50.906;4.438;2023-03-14T04:25:04;8.57;;;8.17;;
19905;SDS011;10115;50.906;4.438;2023-03-14T04:27:30;9.30;;;8.40;;
19905;SDS011;10115;50.906;4.438;2023-03-14T04:29:56;8.37;;;7.63;;
19905;SDS011;10115;50.906;4.438;2023-03-14T04:32:22;7.83;;;7.53;;
19905;SDS011;10115;50.906;4.438;2023-03-14T04:34:47;9.57;;;9.00;;
19905;SDS011;10115;50.906;4.438;2023-03-14T04:37:13;10.27;;;9.40;;
19905;SDS011;10115;50.906;4.438;2023-03-14T04:39:39;8.23;;;7.73;;
19905;SDS011;10115;50.906;4.438;2023-03-14T04:42:05;8.70;;;8.30;;
19905;SDS011;10115;50.906;4.438;2023-03-14T04:44:30;8.60;;;8.17;;
19905;SDS011;10115;50.906;4.438;2023-03-14T04:46:56;21.17;;;7.93;;
19905;SDS011;10115;50.906;4.438;2023-03-14T04:49:22;8.40;;;7.73;;
19905;SDS011;10115;50.906;4.438;2023-03-14T04:51:48;7.50;;;7.20;;
19905;SDS011;10115;50.906;4.438;2023-03-14T04:54:15;8.33;;;7.83;;
19905;SDS011;10115;50.906;4.438;2023-03-14T04:56:42;7.87;;;7.57;;
19905;SDS011;10115;50.906;4.438;2023-03-14T04:59:08;8.47;;;7.97;;
19905;SDS011;10115;50.906;4.438;2023-03-14T05:01:34;8.50;;;7.90;;
19905;SDS011;10115;50.906;4.438;2023-03-14T05:04:00;9.27;;;8.77;;
19905;SDS011;10115;50.906;4.438;2023-03-14T05:06:25;7.77;;;7.10;;
19905;SDS011;10115;50.906;4.438;2023-03-14T05:08:51;7.53;;;6.83;;
19905;SDS011;10115;50.906;4.438;2023-03-14T05:11:17;6.83;;;6.53;;
19905;SDS011;10115;50.906;4.438;2023-03-14T05:13:43;8.13;;;7.73;;
19905;SDS011;10115;50.906;4.438;2023-03-14T05:16:10;7.10;;;6.80;;
19905;SDS011;10115;50.906;4.438;2023-03-14T05:18:36;9.03;;;8.43;;
19905;SDS011;10115;50.906;4.438;2023-03-14T05:21:02;9.63;;;9.13;;
19905;SDS011;10115;50.906;4.438;2023-03-14T05:23:28;8.27;;;7.87;;
19905;SDS011;10115;50.906;4.438;2023-03-14T05:25:54;8.40;;;8.00;;
19905;SDS011;10115;50.906;4.438;2023-03-14T05:28:20;10.17;;;9.33;;
19905;SDS011;10115;50.906;4.438;2023-03-14T05:30:46;9.77;;;9.00;;
19905;SDS011;10115;50.906;4.438;2023-03-14T05:33:12;8.50;;;7.93;;
19905;SDS011;10115;50.906;4.438;2023-03-14T05:35:38;8.10;;;7.80;;
19905;SDS011;10115;50.906;4.438;2023-03-14T05:38:03;8.53;;;8.13;;
19905;SDS011;10115;50.906;4.438;2023-03-14T05:40:29;7.20;;;6.73;;
19905;SDS011;10115;50.906;4.438;2023-03-14T05:42:55;7.37;;;7.07;;
19905;SDS011;10115;50.906;4.438;2023-03-14T05:45:20;8.50;;;8.10;;
19905;SDS011;10115;50.906;4.438;2023-03-14T05:47:46;9.33;;;8.70;;
19905;SDS011;10115;50.906;4.438;2023-03-14T05:50:12;6.13;;;5.73;;
19905;SDS011;10115;50.906;4.438;2023-03-14T05:52:37;5.43;;;5.23;;
19905;SDS011;10115;50.906;4.438;2023-03-14T05:55:03;5.80;;;5.40;;
19905;SDS011;10115;50.906;4.438;2023-03-14T05:57:30;5.30;;;5.10;;
19905;SDS011;10115;50.906;4.438;2023-03-14T05:59:55;7.97;;;7.23;;
19905;SDS011;10115;50.906;4.438;2023-03-14T06:02:21;5.60;;;5.20;;
19905;SDS011;10115;50.906;4.438;2023-03-14T06:04:47;5.07;;;4.87;;
19905;SDS011;10115;50.906;4.438;2023-03-14T06:07:12;5.63;;;5.13;;
19905;SDS011;10115;50.906;4.438;2023-03-14T06:09:38;8.00;;;7.60;;
19905;SDS011;10115;50.906;4.438;2023-03-14T06:12:04;6.67;;;6.37;;
19905;SDS011;10115;50.906;4.438;2023-03-14T06:14:30;5.27;;;4.97;;
19905;SDS011;10115;50.906;4.438;2023-03-14T06:16:56;5.03;;;4.83;;
19905;SDS011;10115;50.906;4.438;2023-03-14T06:19:24;4.90;;;4.60;;
19905;SDS011;10115;50.906;4.438;2023-03-14T06:21:50;5.17;;;4.97;;
19905;SDS011;10115;50.906;4.438;2023-03-14T06:24:16;5.80;;;5.40;;
19905;SDS011;10115;50.906;4.438;2023-03-14T06:26:42;5.73;;;5.47;;
19905;SDS011;10115;50.906;4.438;2023-03-14T06:29:08;6.50;;;6.10;;
19905;SDS011;10115;50.906;4.438;2023-03-14T06:31:34;5.57;;;5.27;;
19905;SDS011;10115;50.906;4.438;2023-03-14T06:34:00;5.30;;;5.00;;
19905;SDS011;10115;50.906;4.438;2023-03-14T06:36:25;5.37;;;5.07;;
19905;SDS011;10115;50.906;4.438;2023-03-14T06:38:51;6.00;;;5.60;;
19905;SDS011;10115;50.906;4.438;2023-03-14T06:41:17;5.33;;;5.13;;
19905;SDS011;10115;50.906;4.438;2023-03-14T06:43:43;6.53;;;6.20;;
19905;SDS011;10115;50.906;4.438;2023-03-14T06:46:08;6.70;;;6.10;;
19905;SDS011;10115;50.906;4.438;2023-03-14T06:48:34;8.20;;;7.73;;
19905;SDS011;10115;50.906;4.438;2023-03-14T06:51:00;8.27;;;7.87;;
19905;SDS011;10115;50.906;4.438;2023-03-14T06:53:25;8.17;;;7.77;;
19905;SDS011;10115;50.906;4.438;2023-03-14T06:55:51;8.10;;;7.60;;
19905;SDS011;10115;50.906;4.438;2023-03-14T06:58:17;8.13;;;7.77;;
19905;SDS011;10115;50.906;4.438;2023-03-14T07:00:42;8.17;;;7.87;;
19905;SDS011;10115;50.906;4.438;2023-03-14T07:03:08;7.77;;;7.47;;
19905;SDS011;10115;50.906;4.438;2023-03-14T07:05:35;7.47;;;7.17;;
19905;SDS011;10115;50.906;4.438;2023-03-14T07:08:01;6.87;;;6.57;;
19905;SDS011;10115;50.906;4.438;2023-03-14T07:10:26;7.50;;;7.20;;
19905;SDS011;10115;50.906;4.438;2023-03-14T07:12:52;7.87;;;7.57;;
19905;SDS011;10115;50.906;4.438;2023-03-14T07:15:18;7.87;;;7.57;;
19905;SDS011;10115;50.906;4.438;2023-03-14T07:17:45;6.77;;;6.47;;
19905;SDS011;10115;50.906;4.438;2023-03-14T07:20:13;8.97;;;8.37;;
19905;SDS011;10115;50.906;4.438;2023-03-14T07:22:38;8.00;;;7.60;;
19905;SDS011;10115;50.906;4.438;2023-03-14T07:25:04;8.27;;;7.97;;
19905;SDS011;10115;50.906;4.438;2023-03-14T07:27:30;7.27;;;6.90;;
19905;SDS011;10115;50.906;4.438;2023-03-14T07:29:56;7.80;;;7.50;;
19905;SDS011;10115;50.906;4.438;2023-03-14T07:32:22;7.20;;;6.90;;
19905;SDS011;10115;50.906;4.438;2023-03-14T07:34:48;7.27;;;6.97;;
19905;SDS011;10115;50.906;4.438;2023-03-14T07:37:13;7.20;;;6.90;;
19905;SDS011;10115;50.906;4.438;2023-03-14T07:39:39;6.30;;;6.00;;
19905;SDS011;10115;50.906;4.438;2023-03-14T07:42:04;6.27;;;5.97;;
19905;SDS011;10115;50.906;4.438;2023-03-14T07:44:30;7.30;;;7.00;;
19905;SDS011;10115;50.906;4.438;2023-03-14T07:46:56;6.97;;;6.67;;
19905;SDS011;10115;50.906;4.438;2023-03-14T07:49:21;5.73;;;5.33;;
19905;SDS011;10115;50.906;4.438;2023-03-14T07:51:48;5.70;;;5.40;;
19905;SDS011;10115;50.906;4.438;2023-03-14T07:54:14;6.00;;;5.60;;
19905;SDS011;10115;50.906;4.438;2023-03-14T07:56:39;5.33;;;5.03;;
19905;SDS011;10115;50.906;4.438;2023-03-14T07:59:05;5.90;;;5.50;;
19905;SDS011;10115;50.906;4.438;2023-03-14T08:01:31;4.80;;;4.60;;
19905;SDS011;10115;50.906;4.438;2023-03-14T08:03:56;5.40;;;5.10;;
19905;SDS011;10115;50.906;4.438;2023-03-14T08:06:22;5.00;;;4.80;;
19905;SDS011;10115;50.906;4.438;2023-03-14T08:08:48;9.80;;;5.63;;
19905;SDS011;10115;50.906;4.438;2023-03-14T08:11:13;5.03;;;4.73;;
19905;SDS011;10115;50.906;4.438;2023-03-14T08:13:39;5.17;;;4.97;;
19905;SDS011;10115;50.906;4.438;2023-03-14T08:16:05;5.23;;;5.00;;
19905;SDS011;10115;50.906;4.438;2023-03-14T08:18:31;5.37;;;5.17;;
19905;SDS011;10115;50.906;4.438;2023-03-14T08:20:57;5.80;;;5.50;;
19905;SDS011;10115;50.906;4.438;2023-03-14T08:23:23;5.00;;;4.80;;
19905;SDS011;10115;50.906;4.438;2023-03-14T08:25:50;4.80;;;4.60;;
19905;SDS011;10115;50.906;4.438;2023-03-14T08:28:16;5.70;;;5.30;;
19905;SDS011;10115;50.906;4.438;2023-03-14T08:30:43;5.93;;;5.47;;
19905;SDS011;10115;50.906;4.438;2023-03-14T08:33:08;5.03;;;4.83;;
19905;SDS011;10115;50.906;4.438;2023-03-14T08:35:34;6.27;;;5.87;;
19905;SDS011;10115;50.906;4.438;2023-03-14T08:38:01;6.00;;;5.60;;
19905;SDS011;10115;50.906;4.438;2023-03-14T08:40:27;6.07;;;5.77;;
19905;SDS011;10115;50.906;4.438;2023-03-14T08:42:53;4.77;;;4.57;;
19905;SDS011;10115;50.906;4.438;2023-03-14T08:45:18;4.73;;;4.53;;
19905;SDS011;10115;50.906;4.438;2023-03-14T08:47:44;5.63;;;5.33;;
19905;SDS011;10115;50.906;4.438;2023-03-14T08:50:10;6.10;;;5.70;;
19905;SDS011;10115;50.906;4.438;2023-03-14T08:52:37;6.03;;;5.73;;
19905;SDS011;10115;50.906;4.438;2023-03-14T08:55:05;5.57;;;5.27;;
19905;SDS011;10115;50.906;4.438;2023-03-14T08:57:32;6.07;;;5.67;;
19905;SDS011;10115;50.906;4.438;2023-03-14T08:59:57;8.53;;;7.73;;
19905;SDS011;10115;50.906;4.438;2023-03-14T09:02:23;4.80;;;4.60;;
19905;SDS011;10115;50.906;4.438;2023-03-14T09:04:50;6.53;;;6.00;;
19905;SDS011;10115;50.906;4.438;2023-03-14T09:07:16;4.97;;;4.77;;
19905;SDS011;10115;50.906;4.438;2023-03-14T09:09:43;5.97;;;5.43;;
19905;SDS011;10115;50.906;4.438;2023-03-14T09:12:09;5.30;;;5.10;;
19905;SDS011;10115;50.906;4.438;2023-03-14T09:14:34;5.93;;;5.63;;
19905;SDS011;10115;50.906;4.438;2023-03-14T09:17:00;6.60;;;5.43;;
19905;SDS011;10115;50.906;4.438;2023-03-14T09:19:25;5.50;;;5.30;;
19905;SDS011;10115;50.906;4.438;2023-03-14T09:21:51;5.20;;;4.97;;
19905;SDS011;10115;50.906;4.438;2023-03-14T09:24:17;5.83;;;5.43;;
19905;SDS011;10115;50.906;4.438;2023-03-14T09:26:43;5.90;;;5.43;;
19905;SDS011;10115;50.906;4.438;2023-03-14T09:29:09;5.63;;;5.33;;
19905;SDS011;10115;50.906;4.438;2023-03-14T09:31:35;5.40;;;5.20;;
19905;SDS011;10115;50.906;4.438;2023-03-14T09:34:01;4.93;;;4.73;;
19905;SDS011;10115;50.906;4.438;2023-03-14T09:36:26;6.03;;;5.53;;
19905;SDS011;10115;50.906;4.438;2023-03-14T09:38:52;4.80;;;4.60;;
19905;SDS011;10115;50.906;4.438;2023-03-14T09:43:47;5.10;;;4.90;;
19905;SDS011;10115;50.906;4.438;2023-03-14T09:46:19;5.10;;;4.90;;
19905;SDS011;10115;50.906;4.438;2023-03-14T09:48:46;5.13;;;4.93;;
19905;SDS011;10115;50.906;4.438;2023-03-14T09:51:16;9.67;;;5.37;;
19905;SDS011;10115;50.906;4.438;2023-03-14T09:53:46;5.73;;;5.43;;
19905;SDS011;10115;50.906;4.438;2023-03-14T09:56:23;6.03;;;5.73;;
19905;SDS011;10115;50.906;4.438;2023-03-14T09:58:55;6.10;;;5.80;;
19905;SDS011;10115;50.906;4.438;2023-03-14T10:01:26;5.97;;;5.40;;
19905;SDS011;10115;50.906;4.438;2023-03-14T10:03:55;5.67;;;5.37;;
19905;SDS011;10115;50.906;4.438;2023-03-14T10:06:26;5.33;;;5.13;;
19905;SDS011;10115;50.906;4.438;2023-03-14T10:08:53;6.47;;;6.27;;
19905;SDS011;10115;50.906;4.438;2023-03-14T10:11:20;6.97;;;6.67;;
19905;SDS011;10115;50.906;4.438;2023-03-14T10:13:52;6.83;;;6.53;;
19905;SDS011;10115;50.906;4.438;2023-03-14T10:16:30;6.17;;;5.93;;
19905;SDS011;10115;50.906;4.438;2023-03-14T10:19:08;6.40;;;6.10;;
19905;SDS011;10115;50.906;4.438;2023-03-14T10:21:43;8.53;;;8.23;;
19905;SDS011;10115;50.906;4.438;2023-03-14T10:24:27;8.20;;;7.70;;
19905;SDS011;10115;50.906;4.438;2023-03-14T10:26:55;7.00;;;6.70;;
19905;SDS011;10115;50.906;4.438;2023-03-14T10:29:27;6.70;;;6.40;;
19905;SDS011;10115;50.906;4.438;2023-03-14T10:31:55;6.47;;;5.57;;
19905;SDS011;10115;50.906;4.438;2023-03-14T10:34:27;7.27;;;6.87;;
19905;SDS011;10115;50.906;4.438;2023-03-14T10:36:59;6.00;;;5.77;;
19905;SDS011;10115;50.906;4.438;2023-03-14T10:39:50;7.40;;;6.53;;
19905;SDS011;10115;50.906;4.438;2023-03-14T10:44:55;5.13;;;4.93;;
19905;SDS011;10115;50.906;4.438;2023-03-14T10:47:24;5.10;;;4.90;;
19905;SDS011;10115;50.906;4.438;2023-03-14T10:49:53;5.80;;;5.60;;
19905;SDS011;10115;50.906;4.438;2023-03-14T10:52:20;5.73;;;5.43;;
19905;SDS011;10115;50.906;4.438;2023-03-14T10:54:56;5.40;;;5.20;;
19905;SDS011;10115;50.906;4.438;2023-03-14T10:57:38;4.97;;;4.77;;
19905;SDS011;10115;50.906;4.438;2023-03-14T11:00:05;5.90;;;5.37;;
19905;SDS011;10115;50.906;4.438;2023-03-14T11:08:42;5.10;;;4.90;;
19905;SDS011;10115;50.906;4.438;2023-03-14T11:11:25;4.80;;;4.60;;
19905;SDS011;10115;50.906;4.438;2023-03-14T11:19:12;4.87;;;4.67;;
19905;SDS011;10115;50.906;4.438;2023-03-14T11:21:54;4.87;;;4.67;;
19905;SDS011;10115;50.906;4.438;2023-03-14T11:27:21;6.47;;;6.17;;
19905;SDS011;10115;50.906;4.438;2023-03-14T11:29:54;5.00;;;4.80;;
19905;SDS011;10115;50.906;4.438;2023-03-14T11:32:38;5.87;;;5.67;;
19905;SDS011;10115;50.906;4.438;2023-03-14T11:35:17;8.27;;;7.63;;
19905;SDS011;10115;50.906;4.438;2023-03-14T11:37:55;5.17;;;4.97;;
19905;SDS011;10115;50.906;4.438;2023-03-14T11:40:31;7.03;;;5.37;;
19905;SDS011;10115;50.906;4.438;2023-03-14T11:43:04;4.87;;;4.67;;
19905;SDS011;10115;50.906;4.438;2023-03-14T11:45:38;5.63;;;5.43;;
19905;SDS011;10115;50.906;4.438;2023-03-14T11:48:09;5.00;;;4.80;;
19905;SDS011;10115;50.906;4.438;2023-03-14T11:50:36;10.20;;;5.00;;
19905;SDS011;10115;50.906;4.438;2023-03-14T11:53:04;5.10;;;4.90;;
19905;SDS011;10115;50.906;4.438;2023-03-14T11:55:39;5.23;;;5.03;;
19905;SDS011;10115;50.906;4.438;2023-03-14T11:58:24;5.13;;;4.93;;
19905;SDS011;10115;50.906;4.438;2023-03-14T12:00:53;5.07;;;4.87;;
19905;SDS011;10115;50.906;4.438;2023-03-14T12:11:21;4.27;;;4.17;;
19905;SDS011;10115;50.906;4.438;2023-03-14T12:14:00;5.20;;;4.90;;
19905;SDS011;10115;50.906;4.438;2023-03-14T12:16:37;4.10;;;4.00;;
19905;SDS011;10115;50.906;4.438;2023-03-14T12:19:14;24.23;;;5.70;;
19905;SDS011;10115;50.906;4.438;2023-03-14T12:21:59;4.40;;;4.20;;
19905;SDS011;10115;50.906;4.438;2023-03-14T12:24:38;5.53;;;5.23;;
19905;SDS011;10115;50.906;4.438;2023-03-14T12:27:10;4.60;;;4.40;;
19905;SDS011;10115;50.906;4.438;2023-03-14T12:29:59;4.53;;;4.33;;
19905;SDS011;10115;50.906;4.438;2023-03-14T12:32:25;4.83;;;4.53;;
19905;SDS011;10115;50.906;4.438;2023-03-14T12:34:51;4.27;;;4.17;;
19905;SDS011;10115;50.906;4.438;2023-03-14T12:37:33;4.57;;;4.37;;
19905;SDS011;10115;50.906;4.438;2023-03-14T12:47:46;5.57;;;5.07;;
19905;SDS011;10115;50.906;4.438;2023-03-14T12:50:18;7.83;;;4.87;;
19905;SDS011;10115;50.906;4.438;2023-03-14T12:58:08;4.70;;;4.50;;
19905;SDS011;10115;50.906;4.438;2023-03-14T13:00:42;4.93;;;4.73;;
19905;SDS011;10115;50.906;4.438;2023-03-14T13:05:51;5.67;;;5.13;;
19905;SDS011;10115;50.906;4.438;2023-03-14T13:11:18;4.40;;;4.20;;
19905;SDS011;10115;50.906;4.438;2023-03-14T13:13:48;4.73;;;4.53;;
19905;SDS011;10115;50.906;4.438;2023-03-14T13:16:18;4.47;;;4.23;;
19905;SDS011;10115;50.906;4.438;2023-03-14T13:18:46;4.10;;;3.90;;
19905;SDS011;10115;50.906;4.438;2023-03-14T13:24:07;5.23;;;4.60;;
19905;SDS011;10115;50.906;4.438;2023-03-14T13:26:45;5.20;;;4.90;;
19905;SDS011;10115;50.906;4.438;2023-03-14T13:29:21;10.20;;;5.83;;
19905;SDS011;10115;50.906;4.438;2023-03-14T13:31:50;4.73;;;4.53;;
19905;SDS011;10115;50.906;4.438;2023-03-14T13:34:17;8.50;;;5.87;;
19905;SDS011;10115;50.906;4.438;2023-03-14T13:36:43;5.00;;;4.60;;
19905;SDS011;10115;50.906;4.438;2023-03-14T13:39:13;5.23;;;5.03;;
19905;SDS011;10115;50.906;4.438;2023-03-14T13:41:43;12.07;;;6.97;;
19905;SDS011;10115;50.906;4.438;2023-03-14T13:44:15;6.17;;;5.63;;
19905;SDS011;10115;50.906;4.438;2023-03-14T13:47:01;21.43;;;7.90;;
19905;SDS011;10115;50.906;4.438;2023-03-14T13:49:29;8.00;;;6.60;;
19905;SDS011;10115;50.906;4.438;2023-03-14T13:51:58;6.20;;;5.70;;
19905;SDS011;10115;50.906;4.438;2023-03-14T13:54:25;7.97;;;6.90;;
19905;SDS011;10115;50.906;4.438;2023-03-14T13:56:59;9.63;;;8.43;;
19905;SDS011;10115;50.906;4.438;2023-03-14T13:59:31;9.00;;;7.43;;
19905;SDS011;10115;50.906;4.438;2023-03-14T14:01:58;8.57;;;8.00;;
19905;SDS011;10115;50.906;4.438;2023-03-14T14:04:28;6.90;;;6.50;;
19905;SDS011;10115;50.906;4.438;2023-03-14T14:06:58;8.87;;;8.17;;
19905;SDS011;10115;50.906;4.438;2023-03-14T14:09:35;10.83;;;6.53;;
19905;SDS011;10115;50.906;4.438;2023-03-14T14:12:46;6.47;;;6.07;;
19905;SDS011;10115;50.906;4.438;2023-03-14T14:14:59;7.73;;;6.70;;
19905;SDS011;10115;50.906;4.438;2023-03-14T14:17:36;7.20;;;6.80;;
19905;SDS011;10115;50.906;4.438;2023-03-14T14:20:28;6.27;;;5.90;;
19905;SDS011;10115;50.906;4.438;2023-03-14T14:22:57;6.80;;;6.27;;
19905;SDS011;10115;50.906;4.438;2023-03-14T14:25:24;12.27;;;7.43;;
19905;SDS011;10115;50.906;4.438;2023-03-14T14:27:50;6.77;;;6.10;;
19905;SDS011;10115;50.906;4.438;2023-03-14T14:32:49;5.83;;;5.57;;
19905;SDS011;10115;50.906;4.438;2023-03-14T14:37:55;6.77;;;6.20;;
19905;SDS011;10115;50.906;4.438;2023-03-14T14:40:22;7.97;;;7.10;;
19905;SDS011;10115;50.906;4.438;2023-03-14T14:42:49;11.30;;;7.67;;
19905;SDS011;10115;50.906;4.438;2023-03-14T14:45:22;5.80;;;5.40;;
19905;SDS011;10115;50.906;4.438;2023-03-14T14:50:36;5.30;;;5.10;;
19905;SDS011;10115;50.906;4.438;2023-03-14T14:55:53;4.80;;;4.60;;
19905;SDS011;10115;50.906;4.438;2023-03-14T15:01:17;5.37;;;5.13;;
19905;SDS011;10115;50.906;4.438;2023-03-14T15:03:51;5.30;;;5.10;;
19905;SDS011;10115;50.906;4.438;2023-03-14T15:06:18;5.27;;;5.07;;
19905;SDS011;10115;50.906;4.438;2023-03-14T15:08:48;5.07;;;4.87;;
19905;SDS011;10115;50.906;4.438;2023-03-14T15:11:17;5.50;;;5.10;;
19905;SDS011;10115;50.906;4.438;2023-03-14T15:13:45;5.50;;;5.30;;
19905;SDS011;10115;50.906;4.438;2023-03-14T15:16:11;5.20;;;5.00;;
19905;SDS011;10115;50.906;4.438;2023-03-14T15:18:39;5.10;;;4.90;;
19905;SDS011;10115;50.906;4.438;2023-03-14T15:21:05;5.83;;;5.53;;
19905;SDS011;10115;50.906;4.438;2023-03-14T15:23:30;5.57;;;5.27;;
19905;SDS011;10115;50.906;4.438;2023-03-14T15:25:56;5.20;;;5.00;;
19905;SDS011;10115;50.906;4.438;2023-03-14T15:28:23;5.30;;;5.10;;
19905;SDS011;10115;50.906;4.438;2023-03-14T15:30:51;5.90;;;5.33;;
19905;SDS011;10115;50.906;4.438;2023-03-14T15:33:18;5.10;;;4.90;;
19905;SDS011;10115;50.906;4.438;2023-03-14T15:35:45;10.90;;;5.63;;
19905;SDS011;10115;50.906;4.438;2023-03-14T15:38:12;5.60;;;5.40;;
19905;SDS011;10115;50.906;4.438;2023-03-14T15:40:40;5.53;;;5.03;;
19905;SDS011;10115;50.906;4.438;2023-03-14T15:43:07;5.20;;;5.00;;
19905;SDS011;10115;50.906;4.438;2023-03-14T15:45:33;15.10;;;5.70;;
19905;SDS011;10115;50.906;4.438;2023-03-14T15:47:59;5.70;;;5.37;;
19905;SDS011;10115;50.906;4.438;2023-03-14T15:50:25;5.23;;;5.03;;
19905;SDS011;10115;50.906;4.438;2023-03-14T15:52:51;5.20;;;5.00;;
19905;SDS011;10115;50.906;4.438;2023-03-14T15:55:17;5.67;;;5.47;;
19905;SDS011;10115;50.906;4.438;2023-03-14T15:57:43;5.37;;;5.07;;
19905;SDS011;10115;50.906;4.438;2023-03-14T16:00:11;5.17;;;4.97;;
19905;SDS011;10115;50.906;4.438;2023-03-14T16:02:39;5.20;;;4.90;;
19905;SDS011;10115;50.906;4.438;2023-03-14T16:05:06;6.10;;;5.60;;
19905;SDS011;10115;50.906;4.438;2023-03-14T16:07:33;5.30;;;5.10;;